KMWO/MWO METAR and TAF weather

Enter ICAO airport designator
Station Type Date Time Source
KMWO METAR 2022/12/04 05:55 UTC NOAA

KMWO 040555Z AUTO 00000KT 10SM CLR M04/M09 A3044 RMK AO2 T10371091 10000 21053


Station Type Date Time Source
KMWO Decoded METAR 2022/12/04 05:55 UTC NOAA

Station name not available
Dec 04, 2022 - 12:55 AM EST / 2022.12.04 0555 UTC
Wind: Calm:0
Visibility: 10 mile(s):0
Sky conditions: clear
Temperature: 25.3 F (-3.7 C)
Dew Point: 15.6 F (-9.1 C)
Relative Humidity: 66%
Pressure (altimeter): 30.44 in. Hg (1030 hPa)
ob: KMWO 040555Z AUTO 00000KT 10SM CLR M04/M09 A3044 RMK AO2 T10371091 10000 21053
cycle: 6

Station Type Date Time Source
KMWO TAF UTC NOAA

Error!

Example: see airport list